createdAt,value
2023-05-06T00:00:09.602Z,1.90
2023-05-06T00:02:37.896Z,1.70
2023-05-06T00:05:06.715Z,1.93
2023-05-06T00:07:35.043Z,1.90
2023-05-06T00:10:04.755Z,1.87
2023-05-06T00:12:32.926Z,2.20
2023-05-06T00:15:01.116Z,2.20
2023-05-06T00:17:29.273Z,2.23
2023-05-06T00:19:58.850Z,2.50
2023-05-06T00:22:27.107Z,2.33
2023-05-06T00:24:55.320Z,2.10
2023-05-06T00:27:25.004Z,2.50
2023-05-06T00:29:53.120Z,2.40
2023-05-06T00:32:21.557Z,2.40
2023-05-06T00:34:49.832Z,2.70
2023-05-06T00:37:17.927Z,2.27
2023-05-06T00:39:46.048Z,2.67
2023-05-06T00:42:14.405Z,2.60
2023-05-06T00:44:43.925Z,2.87
2023-05-06T00:47:12.723Z,3.23
2023-05-06T00:49:41.100Z,2.77
2023-05-06T00:52:09.982Z,2.90
2023-05-06T00:54:38.129Z,2.70
2023-05-06T00:57:06.539Z,2.87
2023-05-06T00:59:34.849Z,2.80
2023-05-06T01:02:04.506Z,2.77
2023-05-06T01:04:33.854Z,2.80
2023-05-06T01:07:09.721Z,2.90
2023-05-06T01:09:43.920Z,3.03
2023-05-06T01:12:19.984Z,2.93
2023-05-06T01:15:00.978Z,2.73
2023-05-06T01:17:32.414Z,2.90
2023-05-06T01:20:02.276Z,2.90
2023-05-06T01:22:31.600Z,2.80
2023-05-06T01:25:01.757Z,2.50
2023-05-06T01:27:30.067Z,2.90
2023-05-06T01:29:59.872Z,2.77
2023-05-06T01:32:37.592Z,3.20
2023-05-06T01:35:16.535Z,2.90
2023-05-06T01:37:52.520Z,2.80
2023-05-06T01:40:23.145Z,2.97
2023-05-06T01:42:51.421Z,2.73
2023-05-06T01:45:20.705Z,2.57
2023-05-06T01:47:49.503Z,3.10
2023-05-06T01:50:17.875Z,2.70
2023-05-06T01:52:46.028Z,2.43
2023-05-06T01:55:14.217Z,3.40
2023-05-06T01:57:43.760Z,3.20
2023-05-06T02:00:12.819Z,3.20
2023-05-06T02:02:41.694Z,2.90
2023-05-06T02:05:10.270Z,3.10
2023-05-06T02:07:38.627Z,2.73
2023-05-06T02:10:08.644Z,3.10
2023-05-06T02:12:36.731Z,3.13
2023-05-06T02:15:07.320Z,3.00
2023-05-06T02:17:36.771Z,3.20
2023-05-06T02:20:06.025Z,3.23
2023-05-06T02:22:34.133Z,2.90
2023-05-06T02:25:02.245Z,3.67
2023-05-06T02:27:30.514Z,3.20
2023-05-06T02:30:01.730Z,3.30
2023-05-06T02:32:34.117Z,3.10
2023-05-06T02:35:02.424Z,3.30
2023-05-06T02:37:30.486Z,3.43
2023-05-06T02:39:58.571Z,3.20
2023-05-06T02:42:26.909Z,3.70
2023-05-06T02:44:54.977Z,3.33
2023-05-06T02:47:23.060Z,3.80
2023-05-06T02:49:52.718Z,3.33
2023-05-06T02:52:20.807Z,3.40
2023-05-06T02:54:48.877Z,3.40
2023-05-06T02:57:16.926Z,3.00
2023-05-06T02:59:45.208Z,2.90
2023-05-06T03:02:13.295Z,3.30
2023-05-06T03:04:41.819Z,3.10
2023-05-06T03:07:11.388Z,3.27
2023-05-06T03:09:39.516Z,3.20
2023-05-06T03:12:07.939Z,3.43
2023-05-06T03:14:36.033Z,3.40
2023-05-06T03:17:04.617Z,3.30
2023-05-06T03:19:32.706Z,3.30
2023-05-06T03:22:00.840Z,3.40
2023-05-06T03:24:30.260Z,3.30
2023-05-06T03:26:58.569Z,3.20
2023-05-06T03:29:26.711Z,3.20
2023-05-06T03:31:57.494Z,3.03
2023-05-06T03:34:25.717Z,3.10
2023-05-06T03:36:53.776Z,2.97
2023-05-06T03:39:21.941Z,3.20
2023-05-06T03:41:51.616Z,3.07
2023-05-06T03:44:19.673Z,3.33
2023-05-06T03:46:47.928Z,3.70
2023-05-06T03:49:16.034Z,3.30
2023-05-06T03:51:44.214Z,3.33
2023-05-06T03:54:12.435Z,3.37
2023-05-06T03:56:40.525Z,3.20
2023-05-06T03:59:10.199Z,3.37
2023-05-06T04:01:38.411Z,3.30
2023-05-06T04:04:06.884Z,3.60
2023-05-06T04:06:35.094Z,3.67
2023-05-06T04:09:04.369Z,3.57
2023-05-06T04:11:32.478Z,3.40
2023-05-06T04:14:03.590Z,3.60
2023-05-06T04:16:33.060Z,3.40
2023-05-06T04:19:01.972Z,3.80
2023-05-06T04:21:31.396Z,3.70
2023-05-06T04:23:59.526Z,3.30
2023-05-06T04:26:27.567Z,3.37
2023-05-06T04:28:55.836Z,3.43
2023-05-06T04:31:24.237Z,3.43
2023-05-06T04:33:54.116Z,3.07
2023-05-06T04:36:22.533Z,2.80
2023-05-06T04:38:52.740Z,3.57
2023-05-06T04:41:22.273Z,3.00
2023-05-06T04:43:50.400Z,3.30
2023-05-06T04:46:18.547Z,3.40
2023-05-06T04:48:46.770Z,3.50
2023-05-06T04:51:16.242Z,3.40
2023-05-06T04:53:44.426Z,2.93
2023-05-06T04:56:12.674Z,3.20
2023-05-06T04:58:40.803Z,3.30
2023-05-06T05:01:11.588Z,3.90
2023-05-06T05:03:39.782Z,3.33
2023-05-06T05:06:08.608Z,3.23
2023-05-06T05:08:38.113Z,3.30
2023-05-06T05:11:07.657Z,3.43
2023-05-06T05:13:36.431Z,3.00
2023-05-06T05:16:04.804Z,3.10
2023-05-06T05:18:32.922Z,3.07
2023-05-06T05:21:01.248Z,2.80
2023-05-06T05:23:29.361Z,2.90
2023-05-06T05:25:58.800Z,2.80
2023-05-06T05:28:26.977Z,2.93
2023-05-06T05:30:55.273Z,2.90
2023-05-06T05:33:23.464Z,3.07
2023-05-06T05:35:51.592Z,3.00
2023-05-06T05:38:19.679Z,2.83
2023-05-06T05:40:47.833Z,3.17
2023-05-06T06:02:52.801Z,2.80
2023-05-06T06:05:21.169Z,2.60
2023-05-06T06:07:49.345Z,2.80
2023-05-06T06:10:17.537Z,2.93
2023-05-06T06:12:45.827Z,2.80
2023-05-06T06:15:14.104Z,2.80
2023-05-06T06:17:42.994Z,2.90
2023-05-06T06:20:14.347Z,2.90
2023-05-06T06:22:42.522Z,2.90
2023-05-06T06:25:11.725Z,2.93
2023-05-06T06:27:40.145Z,3.00
2023-05-06T06:30:09.552Z,2.80
2023-05-06T06:32:37.793Z,2.60
2023-05-06T06:35:06.726Z,2.73
2023-05-06T06:37:36.396Z,2.87
2023-05-06T06:40:04.910Z,2.87
2023-05-06T06:42:33.037Z,3.00
2023-05-06T06:45:01.389Z,2.37
2023-05-06T06:47:29.605Z,2.67
2023-05-06T06:49:58.014Z,2.50
2023-05-06T06:52:26.259Z,2.33
2023-05-06T06:54:55.844Z,2.73
2023-05-06T06:57:23.973Z,2.50
2023-05-06T06:59:53.878Z,2.53
2023-05-06T07:02:22.085Z,2.57
2023-05-06T07:04:50.529Z,2.30
2023-05-06T07:07:23.577Z,2.23
2023-05-06T07:09:51.891Z,2.20
2023-05-06T07:12:21.387Z,2.50
2023-05-06T07:14:49.752Z,2.50
2023-05-06T07:17:17.953Z,2.60
2023-05-06T07:19:46.092Z,2.50
2023-05-06T07:22:14.916Z,2.50
2023-05-06T07:24:43.214Z,2.17
2023-05-06T07:27:11.773Z,2.40
2023-05-06T07:29:41.377Z,2.30
2023-05-06T07:32:12.964Z,2.10
2023-05-06T07:34:41.185Z,2.33
2023-05-06T07:37:09.457Z,2.23
2023-05-06T07:39:37.674Z,2.20
2023-05-06T07:42:06.066Z,2.10
2023-05-06T07:44:34.241Z,2.13
2023-05-06T07:47:06.520Z,2.40
2023-05-06T07:49:35.361Z,2.00
2023-05-06T07:52:03.630Z,2.10
2023-05-06T07:54:32.557Z,2.20
2023-05-06T07:57:00.983Z,1.90
2023-05-06T07:59:29.101Z,1.90
2023-05-06T08:01:57.207Z,1.70
2023-05-06T08:04:28.421Z,1.90
2023-05-06T08:06:57.090Z,1.90
2023-05-06T08:09:28.700Z,2.00
2023-05-06T08:11:56.953Z,1.67
2023-05-06T08:14:25.994Z,2.03
2023-05-06T08:16:54.421Z,1.80
2023-05-06T08:19:22.811Z,1.80
2023-05-06T08:21:52.781Z,1.77
2023-05-06T08:24:21.207Z,1.70
2023-05-06T08:26:53.403Z,2.00
2023-05-06T08:29:21.563Z,1.77
2023-05-06T08:31:49.842Z,1.70
2023-05-06T08:34:18.647Z,1.97
2023-05-06T08:36:46.778Z,1.90
2023-05-06T08:39:16.370Z,1.80
2023-05-06T08:41:49.217Z,1.77
2023-05-06T08:44:20.614Z,1.70
2023-05-06T08:46:49.051Z,1.70
2023-05-06T08:49:17.608Z,1.77
2023-05-06T08:51:46.604Z,1.90
2023-05-06T08:54:17.007Z,1.63
2023-05-06T08:56:48.959Z,1.80
2023-05-06T08:59:17.848Z,1.60
2023-05-06T09:01:46.477Z,1.50
2023-05-06T09:04:15.636Z,1.97
2023-05-06T09:06:43.778Z,1.67
2023-05-06T09:09:13.113Z,1.67
2023-05-06T09:11:42.734Z,2.00
2023-05-06T09:14:13.414Z,1.60
2023-05-06T09:16:43.940Z,1.40
2023-05-06T09:19:19.281Z,1.90
2023-05-06T09:21:49.328Z,1.60
2023-05-06T09:24:18.317Z,1.70
2023-05-06T09:26:48.389Z,1.90
2023-05-06T09:29:16.695Z,1.60
2023-05-06T09:31:46.162Z,1.60
2023-05-06T09:34:15.677Z,1.50
2023-05-06T09:36:44.000Z,1.60
2023-05-06T09:39:12.154Z,1.60
2023-05-06T09:41:40.399Z,1.70
2023-05-06T09:44:10.390Z,1.40
2023-05-06T09:46:38.730Z,1.53
2023-05-06T09:49:07.722Z,1.63
2023-05-06T09:51:35.983Z,1.47
2023-05-06T09:54:04.835Z,1.50
2023-05-06T09:56:33.658Z,1.40
2023-05-06T09:59:04.240Z,1.40
2023-05-06T10:01:37.905Z,1.50
2023-05-06T10:04:10.914Z,1.60
2023-05-06T10:06:41.637Z,1.30
2023-05-06T10:09:10.342Z,1.40
2023-05-06T10:11:38.579Z,1.50
2023-05-06T10:14:07.744Z,1.50
2023-05-06T10:16:40.175Z,1.30
2023-05-06T10:19:09.881Z,1.50
2023-05-06T10:21:42.577Z,1.30
2023-05-06T10:24:14.546Z,1.60
2023-05-06T10:26:46.691Z,1.20
2023-05-06T10:29:15.135Z,1.30
2023-05-06T10:31:55.162Z,1.50
2023-05-06T10:34:25.434Z,1.30
2023-05-06T10:36:57.516Z,1.30
2023-05-06T10:39:27.065Z,1.50
2023-05-06T10:41:55.509Z,1.53
2023-05-06T10:44:56.729Z,1.77
2023-05-06T10:47:26.604Z,1.40
2023-05-06T10:50:20.057Z,1.40
2023-05-06T10:52:49.222Z,1.30
2023-05-06T10:55:27.750Z,1.20
2023-05-06T10:57:57.233Z,1.40
2023-05-06T11:00:25.594Z,1.20
2023-05-06T11:03:02.155Z,1.53
2023-05-06T11:05:30.692Z,1.37
2023-05-06T11:08:11.693Z,1.20
2023-05-06T11:10:39.890Z,1.20
2023-05-06T11:13:24.335Z,1.33
2023-05-06T11:15:53.344Z,1.33
2023-05-06T11:18:45.137Z,1.80
2023-05-06T11:21:41.612Z,1.23
2023-05-06T11:24:15.092Z,1.60
2023-05-06T11:26:44.390Z,1.70
2023-05-06T11:29:12.511Z,1.20
2023-05-06T11:31:42.950Z,1.50
2023-05-06T11:34:15.423Z,1.53
2023-05-06T11:36:53.002Z,1.20
2023-05-06T11:39:21.220Z,1.20
2023-05-06T11:41:49.702Z,1.20
2023-05-06T11:44:28.481Z,1.33
2023-05-06T11:47:04.305Z,1.30
2023-05-06T11:49:37.155Z,1.17
2023-05-06T11:52:05.894Z,1.33
2023-05-06T11:54:36.998Z,1.20
2023-05-06T11:57:05.502Z,1.27
2023-05-06T11:59:35.331Z,1.23
2023-05-06T12:02:04.972Z,1.20
2023-05-06T12:04:41.916Z,1.30
2023-05-06T12:07:11.911Z,1.10
2023-05-06T12:09:43.151Z,1.23
2023-05-06T12:12:12.356Z,0.90
2023-05-06T12:14:41.590Z,1.33
2023-05-06T12:17:10.168Z,1.10
2023-05-06T12:19:39.629Z,1.33
2023-05-06T12:22:19.523Z,1.23
2023-05-06T12:24:48.177Z,1.10
2023-05-06T12:27:29.482Z,1.23
2023-05-06T12:29:57.686Z,1.40
2023-05-06T12:32:25.803Z,1.55
2023-05-06T12:34:54.172Z,1.30
2023-05-06T12:37:28.523Z,1.10
2023-05-06T12:39:59.125Z,1.20
2023-05-06T12:42:28.169Z,1.20
2023-05-06T12:44:56.350Z,1.20
2023-05-06T12:47:25.649Z,1.30
2023-05-06T12:49:55.377Z,1.20
2023-05-06T12:52:24.870Z,1.37
2023-05-06T12:54:54.632Z,1.10
2023-05-06T12:57:23.672Z,1.57
2023-05-06T12:59:51.839Z,1.40
2023-05-06T13:02:20.542Z,1.40
2023-05-06T13:04:48.810Z,1.37
2023-05-06T13:07:17.164Z,1.43
2023-05-06T13:09:45.500Z,1.67
2023-05-06T13:12:14.988Z,1.27
2023-05-06T13:14:43.175Z,1.40
2023-05-06T13:17:11.431Z,1.50
2023-05-06T13:19:40.089Z,1.30
2023-05-06T13:22:08.292Z,1.40
2023-05-06T13:24:36.673Z,1.47
2023-05-06T13:27:04.869Z,1.20
2023-05-06T13:29:34.411Z,1.30
2023-05-06T13:32:05.078Z,1.50
2023-05-06T13:34:34.875Z,1.67
2023-05-06T13:37:03.122Z,1.23
2023-05-06T13:39:31.618Z,1.20
2023-05-06T13:41:59.723Z,1.00
2023-05-06T13:44:28.132Z,1.40
2023-05-06T13:46:57.684Z,1.20
2023-05-06T13:49:26.032Z,1.40
2023-05-06T13:51:54.394Z,1.20
2023-05-06T13:54:22.523Z,1.40
2023-05-06T13:56:50.626Z,1.30
2023-05-06T13:59:18.757Z,1.40
2023-05-06T14:01:49.631Z,1.10
2023-05-06T14:04:19.140Z,1.30
2023-05-06T14:06:47.324Z,1.20
2023-05-06T14:09:15.448Z,1.30
2023-05-06T14:11:43.628Z,1.30
2023-05-06T14:14:11.742Z,1.30
2023-05-06T14:16:39.882Z,1.30
2023-05-06T14:19:08.034Z,1.30
2023-05-06T14:21:37.521Z,1.43
2023-05-06T14:24:07.641Z,1.30
2023-05-06T14:26:36.226Z,1.80
2023-05-06T14:29:05.698Z,1.80
2023-05-06T14:31:34.774Z,1.10
2023-05-06T14:34:03.580Z,1.20
2023-05-06T14:36:31.805Z,1.40
2023-05-06T14:39:01.367Z,1.37
2023-05-06T14:41:29.538Z,1.43
2023-05-06T14:43:57.754Z,1.40
2023-05-06T14:46:28.588Z,1.40
2023-05-06T14:48:57.780Z,1.50
2023-05-06T14:51:25.933Z,1.30
2023-05-06T14:53:55.485Z,1.50
2023-05-06T14:56:25.220Z,1.13
2023-05-06T14:58:53.479Z,1.70
2023-05-06T15:01:24.783Z,2.37
2023-05-06T15:03:53.291Z,2.20
2023-05-06T15:06:21.486Z,1.70
2023-05-06T15:08:49.877Z,1.77
2023-05-06T15:11:18.001Z,1.60
2023-05-06T15:13:47.554Z,1.60
2023-05-06T15:16:15.901Z,1.50
2023-05-06T15:18:45.238Z,1.50
2023-05-06T15:21:13.509Z,1.50
2023-05-06T15:23:41.593Z,1.63
2023-05-06T15:26:09.711Z,1.50
2023-05-06T15:28:37.811Z,1.40
2023-05-06T15:31:08.456Z,1.57
2023-05-06T15:33:36.640Z,1.57
2023-05-06T15:36:05.038Z,1.50
2023-05-06T15:38:59.778Z,1.40
2023-05-06T15:41:30.469Z,1.53
2023-05-06T15:43:59.770Z,1.80
2023-05-06T15:46:30.097Z,3.80
2023-05-06T15:49:21.201Z,1.80
2023-05-06T15:51:46.621Z,1.33
2023-05-06T15:54:15.536Z,1.90
2023-05-06T15:56:43.615Z,1.70
2023-05-06T15:59:12.269Z,1.40
2023-05-06T16:02:24.259Z,1.60
2023-05-06T16:04:31.097Z,1.80
2023-05-06T16:06:59.449Z,1.67
2023-05-06T16:09:27.632Z,1.90
2023-05-06T16:11:55.785Z,1.90
2023-05-06T16:14:23.927Z,1.57
2023-05-06T16:16:53.557Z,1.70
2023-05-06T16:19:21.848Z,1.80
2023-05-06T16:21:50.037Z,1.40
2023-05-06T16:24:18.156Z,2.03
2023-05-06T16:26:48.990Z,1.70
2023-05-06T16:29:19.118Z,2.40
2023-05-06T16:31:47.929Z,2.73
2023-05-06T16:34:17.470Z,1.70
2023-05-06T16:36:45.982Z,1.70
2023-05-06T16:39:14.170Z,1.60
2023-05-06T16:41:42.597Z,2.07
2023-05-06T16:44:10.949Z,1.90
2023-05-06T16:46:39.229Z,1.83
2023-05-06T16:49:07.387Z,1.70
2023-05-06T16:51:37.220Z,1.70
2023-05-06T16:54:05.587Z,1.77
2023-05-06T16:56:47.911Z,1.67
2023-05-06T16:59:22.016Z,1.50
2023-05-06T17:01:50.783Z,1.87
2023-05-06T17:04:18.982Z,1.87
2023-05-06T17:06:48.482Z,1.43
2023-05-06T17:09:16.916Z,2.00
2023-05-06T17:11:45.249Z,1.73
2023-05-06T17:14:13.792Z,2.10
2023-05-06T17:16:43.179Z,1.60
2023-05-06T17:19:11.940Z,1.73
2023-05-06T17:21:40.079Z,1.73
2023-05-06T17:24:09.710Z,1.83
2023-05-06T17:26:38.730Z,2.00
2023-05-06T17:29:07.145Z,1.77
2023-05-06T17:31:35.236Z,1.83
2023-05-06T17:34:03.881Z,1.80
2023-05-06T17:36:32.727Z,1.97
2023-05-06T17:39:04.695Z,1.90
2023-05-06T17:41:34.290Z,2.00
2023-05-06T17:44:02.967Z,1.80
2023-05-06T17:46:31.885Z,1.90
2023-05-06T17:49:00.151Z,2.07
2023-05-06T17:51:28.320Z,1.70
2023-05-06T17:53:56.430Z,1.87
2023-05-06T17:56:24.582Z,1.63
2023-05-06T17:58:54.238Z,1.80
2023-05-06T18:01:22.992Z,1.80
2023-05-06T18:03:51.395Z,2.10
2023-05-06T18:06:19.857Z,1.97
2023-05-06T18:08:47.988Z,2.13
2023-05-06T18:11:16.521Z,2.20
2023-05-06T18:13:44.833Z,1.90
2023-05-06T18:16:14.376Z,1.67
2023-05-06T18:18:43.959Z,1.90
2023-05-06T18:21:12.359Z,1.83
2023-05-06T18:23:40.644Z,2.10
2023-05-06T18:26:08.861Z,2.27
2023-05-06T18:28:38.604Z,2.20
2023-05-06T18:31:07.717Z,2.03
2023-05-06T18:33:37.316Z,2.10
2023-05-06T18:36:05.696Z,1.90
2023-05-06T18:38:33.853Z,1.80
2023-05-06T18:41:03.194Z,1.73
2023-05-06T18:43:31.381Z,2.10
2023-05-06T18:45:59.723Z,2.47
2023-05-06T18:48:30.938Z,2.00
2023-05-06T18:51:12.214Z,2.03
2023-05-06T18:53:40.501Z,2.50
2023-05-06T18:56:09.708Z,2.70
2023-05-06T18:58:39.706Z,3.73
2023-05-06T19:01:09.179Z,2.00
2023-05-06T19:03:37.769Z,2.40
2023-05-06T19:06:09.200Z,2.83
2023-05-06T19:08:39.067Z,2.73
2023-05-06T19:11:07.230Z,2.37
2023-05-06T19:13:35.941Z,2.40
2023-05-06T19:16:04.165Z,2.80
2023-05-06T19:18:32.295Z,2.67
2023-05-06T19:21:00.907Z,2.97
2023-05-06T19:23:29.193Z,2.50
2023-05-06T19:25:58.662Z,2.73
2023-05-06T19:28:27.052Z,2.80
2023-05-06T19:30:55.466Z,2.70
2023-05-06T19:33:23.932Z,2.67
2023-05-06T19:35:52.100Z,2.80
2023-05-06T19:38:21.336Z,2.63
2023-05-06T19:40:49.566Z,2.57
2023-05-06T19:43:19.048Z,2.53
2023-05-06T19:45:47.256Z,2.90
2023-05-06T19:48:15.757Z,2.63
2023-05-06T19:50:45.976Z,3.07
2023-05-06T19:53:14.179Z,2.80
2023-05-06T19:55:42.509Z,2.53
2023-05-06T19:58:11.737Z,3.13
2023-05-06T20:00:41.227Z,3.17
2023-05-06T20:03:09.701Z,3.10
2023-05-06T20:05:38.096Z,3.10
2023-05-06T20:08:10.876Z,3.00
2023-05-06T20:10:39.313Z,2.87
2023-05-06T20:13:07.649Z,3.10
2023-05-06T20:15:36.541Z,3.00
2023-05-06T20:18:06.450Z,3.43
2023-05-06T20:20:36.091Z,3.10
2023-05-06T20:23:04.574Z,3.60
2023-05-06T20:25:33.160Z,2.97
2023-05-06T20:28:02.111Z,3.10
2023-05-06T20:30:30.388Z,2.90
2023-05-06T20:32:58.686Z,2.93
2023-05-06T20:35:28.463Z,3.20
2023-05-06T20:37:56.670Z,2.90
2023-05-06T20:40:24.772Z,3.17
2023-05-06T20:42:52.929Z,2.90
2023-05-06T20:45:21.397Z,2.70
2023-05-06T20:47:49.570Z,3.00
2023-05-06T20:50:18.739Z,2.90
2023-05-06T20:52:48.804Z,3.03
2023-05-06T20:55:16.957Z,3.13
2023-05-06T20:57:45.302Z,3.07
2023-05-06T21:00:14.575Z,2.87
2023-05-06T21:02:42.907Z,2.70
2023-05-06T21:05:12.356Z,2.70
2023-05-06T21:07:40.712Z,2.90
2023-05-06T21:10:11.586Z,2.97
2023-05-06T21:12:39.833Z,2.93
2023-05-06T21:15:10.487Z,2.77
2023-05-06T21:17:39.116Z,2.40
2023-05-06T21:20:08.711Z,2.83
2023-05-06T21:22:37.007Z,2.80
2023-05-06T21:25:06.345Z,2.60
2023-05-06T21:27:35.921Z,2.77
2023-05-06T21:30:04.426Z,3.30
2023-05-06T21:32:33.342Z,3.10
2023-05-06T21:35:03.152Z,3.27
2023-05-06T21:37:31.310Z,3.10
2023-05-06T21:40:00.241Z,3.20
2023-05-06T21:42:29.992Z,3.50
2023-05-06T21:44:59.606Z,3.50
2023-05-06T21:47:28.009Z,3.17
2023-05-06T21:49:56.379Z,3.20
2023-05-06T21:52:24.664Z,3.83
2023-05-06T21:54:52.872Z,3.40
2023-05-06T21:57:21.047Z,3.47
2023-05-06T21:59:49.297Z,3.60
2023-05-06T22:02:18.985Z,3.63
2023-05-06T22:04:47.209Z,3.47
2023-05-06T22:07:16.568Z,3.47
2023-05-06T22:09:44.848Z,4.20
2023-05-06T22:12:13.287Z,3.73
2023-05-06T22:14:41.960Z,3.90
2023-05-06T22:17:10.922Z,3.63
2023-05-06T22:19:41.826Z,3.50
2023-05-06T22:22:10.521Z,3.70
2023-05-06T22:24:39.397Z,4.00
2023-05-06T22:27:07.533Z,3.97
2023-05-06T22:29:36.144Z,3.83
2023-05-06T22:32:04.452Z,4.10
2023-05-06T22:34:32.908Z,3.70
2023-05-06T22:37:04.421Z,4.20
2023-05-06T22:39:32.602Z,3.97
2023-05-06T22:42:01.818Z,4.00
2023-05-06T22:44:30.120Z,4.40
2023-05-06T22:46:58.494Z,4.37
2023-05-06T22:49:28.943Z,3.90
2023-05-06T22:51:57.558Z,3.90
2023-05-06T22:54:27.104Z,4.30
2023-05-06T22:56:55.272Z,4.10
2023-05-06T22:59:23.704Z,4.07
2023-05-06T23:01:51.814Z,4.00
2023-05-06T23:04:20.118Z,4.27
2023-05-06T23:06:48.585Z,4.10
2023-05-06T23:09:16.738Z,3.83
2023-05-06T23:11:46.910Z,4.00
2023-05-06T23:14:15.105Z,3.90
2023-05-06T23:16:43.277Z,4.00
2023-05-06T23:19:11.451Z,4.00
2023-05-06T23:21:41.426Z,4.20
2023-05-06T23:24:09.950Z,4.00
2023-05-06T23:26:38.067Z,4.13
2023-05-06T23:29:07.583Z,3.97
2023-05-06T23:31:35.754Z,3.90
2023-05-06T23:34:04.351Z,3.70
2023-05-06T23:36:32.513Z,3.67
2023-05-06T23:39:00.769Z,3.83
2023-05-06T23:41:28.944Z,4.17
2023-05-06T23:43:57.403Z,3.80
2023-05-06T23:46:27.238Z,3.90
2023-05-06T23:48:55.491Z,4.53
2023-05-06T23:51:23.613Z,4.10
2023-05-06T23:53:51.985Z,4.07
2023-05-06T23:56:20.645Z,4.07
2023-05-06T23:58:48.791Z,3.97
